Terminal Aerodrome Forecast
Issued by NWS

Home | Current Version | Previous Version | Text Only | Print | Product List | Glossary On
Versions: 1 2 3 4 5 6 7 8 9 10 11 12 13 14 15
000
FTUS43 KSGF 301100
TAFJLN
TAF
KJLN 301120Z 3012/3112 VRB05KT P6SM OVC060
      TEMPO 3012/3016 -SHRA OVC050
     FM301600 17006KT P6SM -SHRA OVC050
     FM302200 VRB05KT P6SM OVC050
     FM310900 VRB02KT 5SM BR OVC025=

USA.gov is the U.S. government's official web portal to all federal, state and local government web resources and services.